East Greenwich, New York
Current Conditions -  °F | °C
As of 11:29 PM on Friday 24 Oct 2014 (Local Time) from KGFL Reporting Station
Haze Haze  
Wind Chill: 41°   Ceiling: Unl
Heat Index: 41°   Visibility: 0.75mi
Dew Point: 40°   Wind: 3mph
Humidity: 96%   Direction: 160°SSE
Pressure: 29.85"   Gusts: NA
Location:  43.2004°N, 73.3317°W
Report Text: KGFL 250329Z AUTO 16003KT 3/4SM BR FEW090 05/04 A2985 RMK AO2 T00500044
Loading
Personal Weather Stations






























Interactive Weather Map
Tropical Storm Tracking
New forecast layout! Learn more

10-Day Weather Forecast

Advertisements
Track Severe Weather on mobile